createdAt,value
2023-02-15T00:01:45.561Z,102660.53
2023-02-15T00:04:16.444Z,102661.56
2023-02-15T00:06:44.348Z,102655.47
2023-02-15T00:09:14.232Z,102659.25
2023-02-15T00:11:43.746Z,102655.75
2023-02-15T00:14:13.537Z,102653.16
2023-02-15T00:16:42.728Z,102652.25
2023-02-15T00:19:12.156Z,102647.19
2023-02-15T00:21:41.323Z,102613.09
2023-02-15T00:24:11.126Z,102632.41
2023-02-15T00:26:43.288Z,102559.91
2023-02-15T00:29:12.458Z,102631.66
2023-02-15T00:31:40.381Z,102619.19
2023-02-15T00:34:12.985Z,102598.69
2023-02-15T00:36:41.241Z,102632.69
2023-02-15T00:39:09.660Z,102626.72
2023-02-15T00:41:38.222Z,102637.09
2023-02-15T00:44:08.186Z,102617.25
2023-02-15T00:46:36.380Z,102596.00
2023-02-15T00:49:04.932Z,102551.78
2023-02-15T00:51:33.033Z,102629.44
2023-02-15T00:54:00.988Z,102623.34
2023-02-15T00:56:29.987Z,102622.56
2023-02-15T00:58:58.091Z,102570.69
2023-02-15T01:01:27.851Z,102623.63
2023-02-15T01:03:55.998Z,102620.91
2023-02-15T01:06:23.934Z,102620.75
2023-02-15T01:08:51.884Z,102614.53
2023-02-15T01:11:23.969Z,102627.50
2023-02-15T01:13:53.891Z,102618.69
2023-02-15T01:16:22.252Z,102616.59
2023-02-15T01:18:51.696Z,102609.47
2023-02-15T01:21:22.417Z,102609.34
2023-02-15T01:23:50.467Z,102605.06
2023-02-15T01:26:19.140Z,102602.47
2023-02-15T01:28:47.431Z,102598.19
2023-02-15T01:31:18.409Z,102570.44
2023-02-15T01:33:46.760Z,102589.53
2023-02-15T01:36:18.347Z,102589.13
2023-02-15T01:38:46.263Z,102588.34
2023-02-15T01:41:24.501Z,102578.25
2023-02-15T01:43:55.009Z,102551.81
2023-02-15T01:46:28.941Z,102570.47
2023-02-15T01:49:02.636Z,102571.00
2023-02-15T01:51:35.530Z,102567.50
2023-02-15T01:54:07.960Z,102568.41
2023-02-15T01:56:40.170Z,102556.47
2023-02-15T01:59:11.547Z,102564.63
2023-02-15T02:01:40.240Z,102544.41
2023-02-15T02:04:15.632Z,102560.63
2023-02-15T02:06:48.705Z,102562.44
2023-02-15T02:09:17.131Z,102564.25
2023-02-15T02:11:48.669Z,102540.28
2023-02-15T02:14:17.627Z,102523.56
2023-02-15T02:16:53.679Z,102533.41
2023-02-15T02:19:51.198Z,102550.38
2023-02-15T02:22:46.676Z,102545.06
2023-02-15T02:25:29.611Z,102537.16
2023-02-15T02:28:15.316Z,102533.66
2023-02-15T02:30:57.477Z,102499.72
2023-02-15T02:33:56.279Z,102502.97
2023-02-15T02:36:30.511Z,102465.13
2023-02-15T02:39:09.722Z,102506.47
2023-02-15T02:41:46.318Z,102492.47
2023-02-15T02:44:20.314Z,102506.19
2023-02-15T02:46:54.279Z,102485.47
2023-02-15T02:49:36.502Z,102518.00
2023-02-15T02:52:06.791Z,102511.91
2023-02-15T02:54:36.834Z,102499.47
2023-02-15T02:57:10.858Z,102507.88
2023-02-15T02:59:44.116Z,102513.06
2023-02-15T03:02:15.774Z,102490.78
2023-02-15T03:04:49.744Z,102495.69
2023-02-15T03:07:23.102Z,102490.78
2023-02-15T03:09:53.811Z,102498.41
2023-02-15T03:12:26.412Z,102500.22
2023-02-15T03:14:57.380Z,102501.00
2023-02-15T03:17:29.682Z,102484.81
2023-02-15T03:20:02.774Z,102446.34
2023-02-15T03:22:33.638Z,102494.41
2023-02-15T03:25:06.697Z,102482.63
2023-02-15T03:27:38.369Z,102496.88
2023-02-15T03:30:08.796Z,102488.31
2023-02-15T03:32:39.533Z,102484.81
2023-02-15T03:35:09.490Z,102477.94
2023-02-15T03:37:43.078Z,102487.66
2023-02-15T03:40:36.311Z,102472.91
2023-02-15T03:43:11.703Z,102477.81
2023-02-15T03:45:55.757Z,102481.44
2023-02-15T03:48:28.521Z,102486.75
2023-02-15T03:51:20.976Z,102472.75
2023-02-15T03:53:51.153Z,102471.22
2023-02-15T03:56:18.984Z,102470.16
2023-02-15T03:59:04.437Z,102397.13
2023-02-15T04:01:54.830Z,102466.81
2023-02-15T04:04:25.884Z,102453.06
2023-02-15T04:06:55.131Z,102454.09
2023-02-15T04:09:40.693Z,102451.38
2023-02-15T04:12:08.603Z,102455.66
2023-02-15T04:14:54.572Z,102305.00
2023-02-15T04:17:22.559Z,102441.00
2023-02-15T04:20:08.145Z,102437.50
2023-02-15T04:22:54.923Z,102432.44
2023-02-15T04:25:22.930Z,102419.13
2023-02-15T04:27:52.396Z,102436.06
2023-02-15T04:30:22.833Z,102443.59
2023-02-15T04:32:50.867Z,102435.69
2023-02-15T04:35:19.449Z,102355.81
2023-02-15T04:37:48.669Z,102432.19
2023-02-15T04:40:19.493Z,102442.69
2023-02-15T04:42:49.995Z,102359.06
2023-02-15T04:45:18.097Z,102378.47
2023-02-15T04:47:46.062Z,102411.34
2023-02-15T04:50:14.050Z,102384.16
2023-02-15T04:52:41.892Z,102414.06
2023-02-15T04:55:11.208Z,102415.22
2023-02-15T04:57:39.213Z,102383.88
2023-02-15T05:00:09.879Z,102412.38
2023-02-15T05:02:37.859Z,102404.59
2023-02-15T05:05:06.083Z,102408.09
2023-02-15T05:07:33.948Z,102408.09
2023-02-15T05:10:01.890Z,102404.84
2023-02-15T05:12:31.299Z,102388.91
2023-02-15T05:14:59.106Z,102399.66
2023-02-15T05:17:27.014Z,102403.94
2023-02-15T05:19:54.896Z,102404.84
2023-02-15T05:22:22.707Z,102406.53
2023-02-15T05:25:08.020Z,102386.19
2023-02-15T05:28:05.106Z,102398.75
2023-02-15T05:30:33.405Z,102390.31
2023-02-15T05:33:01.559Z,102388.25
2023-02-15T05:35:29.415Z,102386.31
2023-02-15T05:37:57.330Z,102388.50
2023-02-15T05:40:25.296Z,102403.16
2023-02-15T05:42:54.547Z,102388.50
2023-02-15T05:45:22.460Z,102392.13
2023-02-15T05:47:50.432Z,102383.97
2023-02-15T05:50:18.715Z,102389.16
2023-02-15T05:52:46.732Z,102383.97
2023-02-15T05:55:14.909Z,102386.31
2023-02-15T05:57:42.822Z,102373.88
2023-02-15T06:00:15.150Z,102385.41
2023-02-15T06:02:43.218Z,102388.09
2023-02-15T06:05:11.323Z,102411.56
2023-02-15T06:07:39.329Z,102367.00
2023-02-15T06:10:08.673Z,102374.38
2023-02-15T06:12:36.632Z,102303.47
2023-02-15T06:15:05.427Z,102347.44
2023-02-15T06:17:34.783Z,102305.25
2023-02-15T06:20:02.786Z,102376.31
2023-02-15T06:22:30.811Z,102369.44
2023-02-15T06:24:58.813Z,102189.31
2023-02-15T06:27:26.666Z,102352.22
2023-02-15T06:29:54.803Z,102369.31
2023-02-15T06:32:22.724Z,102363.34
2023-02-15T06:34:52.349Z,102366.84
2023-02-15T06:37:20.326Z,102365.03
2023-02-15T06:39:48.281Z,102360.63
2023-02-15T06:42:16.116Z,102357.91
2023-02-15T06:44:44.038Z,102357.00
2023-02-15T06:47:12.060Z,102359.72
2023-02-15T06:49:40.039Z,102321.94
2023-02-15T06:52:09.455Z,102331.91
2023-02-15T06:54:37.362Z,102363.34
2023-02-15T06:57:05.242Z,102356.34
2023-02-15T06:59:33.339Z,102362.44
2023-02-15T07:02:01.353Z,102339.25
2023-02-15T07:04:31.032Z,102371.91
2023-02-15T07:06:59.290Z,102376.06
2023-02-15T07:09:28.686Z,102369.19
2023-02-15T07:12:25.790Z,102367.63
2023-02-15T07:14:53.830Z,102366.72
2023-02-15T07:17:35.553Z,102355.06
2023-02-15T07:20:04.857Z,102319.13
2023-02-15T07:22:35.085Z,102361.53
2023-02-15T07:25:04.637Z,102282.50
2023-02-15T07:27:33.392Z,102360.75
2023-02-15T07:30:01.476Z,102361.53
2023-02-15T07:32:31.386Z,102340.03
2023-02-15T07:34:59.958Z,102339.13
2023-02-15T07:37:28.249Z,102351.94
2023-02-15T07:39:56.272Z,102342.88
2023-02-15T07:42:25.881Z,102344.28
2023-02-15T07:44:53.950Z,102343.25
2023-02-15T07:47:21.836Z,102345.06
2023-02-15T07:49:51.468Z,102347.41
2023-02-15T07:52:19.510Z,102350.91
2023-02-15T07:54:47.351Z,102350.25
2023-02-15T07:57:15.436Z,102330.59
2023-02-15T07:59:44.625Z,102350.25
2023-02-15T08:02:13.186Z,102343.25
2023-02-15T08:04:41.422Z,102328.66
2023-02-15T08:07:09.260Z,102321.66
2023-02-15T08:09:37.138Z,102329.41
2023-02-15T08:12:06.065Z,102339.09
2023-02-15T08:14:33.940Z,102274.28
2023-02-15T08:17:03.768Z,102324.59
2023-02-15T08:19:33.856Z,102331.56
2023-02-15T08:22:03.550Z,102263.94
2023-02-15T08:24:33.748Z,102169.22
2023-02-15T08:27:06.043Z,102324.72
2023-02-15T08:29:35.472Z,102308.66
2023-02-15T08:32:08.022Z,102311.63
2023-02-15T08:34:37.590Z,102315.25
2023-02-15T08:37:07.133Z,102309.16
2023-02-15T08:39:35.198Z,102314.47
2023-02-15T08:42:03.153Z,102230.53
2023-02-15T08:44:31.213Z,102313.44
2023-02-15T08:47:03.874Z,102298.91
2023-02-15T08:49:33.629Z,102191.22
2023-02-15T08:52:01.773Z,102304.81
2023-02-15T08:54:29.773Z,102302.09
2023-02-15T08:56:57.899Z,102293.97
2023-02-15T08:59:27.851Z,102300.72
2023-02-15T09:01:56.733Z,102299.81
2023-02-15T09:04:24.778Z,102298.25
2023-02-15T09:06:54.312Z,102293.31
2023-02-15T09:09:23.140Z,102306.50
2023-02-15T09:11:57.833Z,102296.16
2023-02-15T09:14:28.493Z,102286.56
2023-02-15T09:16:57.218Z,102295.34
2023-02-15T09:19:26.999Z,102294.56
2023-02-15T09:21:56.469Z,102200.84
2023-02-15T09:24:25.961Z,102282.94
2023-02-15T09:26:53.801Z,102289.81
2023-02-15T09:29:21.969Z,102293.31
2023-02-15T09:31:51.681Z,102289.94
2023-02-15T09:34:21.371Z,102278.53
2023-02-15T09:36:49.783Z,102222.69
2023-02-15T09:39:21.284Z,102288.59
2023-02-15T09:42:18.032Z,102281.25
2023-02-15T09:45:19.004Z,102283.84
2023-02-15T09:48:13.475Z,102269.31
2023-02-15T09:50:54.441Z,102272.03
2023-02-15T09:53:38.171Z,102267.38
2023-02-15T09:56:17.132Z,102260.13
2023-02-15T09:58:54.626Z,102260.13
2023-02-15T10:01:35.896Z,102256.75
2023-02-15T10:04:26.129Z,102251.03
2023-02-15T10:07:08.344Z,102251.94
2023-02-15T10:09:51.353Z,102210.56
2023-02-15T10:12:45.875Z,102250.13
2023-02-15T10:15:24.248Z,102245.72
2023-02-15T10:18:07.250Z,102235.25
2023-02-15T10:20:46.012Z,102229.28
2023-02-15T10:23:32.195Z,102226.78
2023-02-15T10:26:06.966Z,102211.78
2023-02-15T10:28:44.750Z,102231.91
2023-02-15T10:31:22.330Z,102224.25
2023-02-15T10:33:56.320Z,102217.38
2023-02-15T10:36:38.304Z,102204.84
2023-02-15T10:39:16.827Z,102212.09
2023-02-15T10:41:53.866Z,102202.25
2023-02-15T10:44:37.436Z,102208.94
2023-02-15T10:47:18.943Z,102202.00
2023-02-15T10:50:04.893Z,102202.34
2023-02-15T10:52:46.771Z,102201.25
2023-02-15T10:55:19.604Z,102165.22
2023-02-15T10:57:58.207Z,102191.09
2023-02-15T11:00:39.403Z,102195.50
2023-02-15T11:03:24.308Z,102191.31
2023-02-15T11:06:03.040Z,102188.34
2023-02-15T11:08:36.393Z,102190.16
2023-02-15T11:11:09.143Z,102166.22
2023-02-15T11:13:41.583Z,102166.13
2023-02-15T11:16:17.664Z,101966.63
2023-02-15T11:18:53.432Z,101957.47
2023-02-15T11:21:25.281Z,102151.28
2023-02-15T11:23:53.979Z,102177.50
2023-02-15T11:26:29.159Z,102180.34
2023-02-15T11:29:01.285Z,102172.31
2023-02-15T11:31:45.709Z,102176.38
2023-02-15T11:34:21.295Z,102170.94
2023-02-15T11:36:52.014Z,102168.13
2023-02-15T11:39:22.859Z,102130.28
2023-02-15T11:41:55.206Z,102163.03
2023-02-15T11:44:27.370Z,102158.09
2023-02-15T11:46:56.806Z,102159.47
2023-02-15T11:49:28.698Z,102155.31
2023-02-15T11:51:58.764Z,102151.13
2023-02-15T11:54:30.139Z,102150.47
2023-02-15T11:57:01.675Z,102144.72
2023-02-15T11:59:34.061Z,102151.97
2023-02-15T12:02:03.491Z,102131.53
2023-02-15T12:04:35.425Z,102146.09
2023-02-15T12:07:13.473Z,102135.84
2023-02-15T12:09:50.334Z,102132.44
2023-02-15T12:12:27.219Z,102142.59
2023-02-15T12:14:56.972Z,102137.38
2023-02-15T12:17:29.140Z,102145.38
2023-02-15T12:19:59.792Z,102049.06
2023-02-15T12:22:30.862Z,102105.28
2023-02-15T12:25:02.239Z,102122.56
2023-02-15T12:27:33.045Z,102081.03
2023-02-15T12:30:06.569Z,102116.84
2023-02-15T12:32:38.403Z,102124.84
2023-02-15T12:35:15.039Z,102085.66
2023-02-15T12:37:56.077Z,102106.19
2023-02-15T12:40:26.983Z,102099.53
2023-02-15T12:42:54.983Z,102099.28
2023-02-15T12:45:26.445Z,102107.97
2023-02-15T12:48:18.825Z,102097.84
2023-02-15T12:50:55.138Z,102102.13
2023-02-15T12:53:35.840Z,102072.88
2023-02-15T12:56:07.617Z,102086.00
2023-02-15T12:58:36.828Z,102094.22
2023-02-15T13:01:13.172Z,102085.53
2023-02-15T13:04:00.129Z,102083.97
2023-02-15T13:06:29.695Z,102091.50
2023-02-15T13:09:00.571Z,102081.34
2023-02-15T13:11:35.160Z,102040.34
2023-02-15T13:14:06.117Z,102077.91
2023-02-15T13:16:37.730Z,102077.91
2023-02-15T13:19:14.847Z,101875.41
2023-02-15T13:21:46.497Z,102070.72
2023-02-15T13:24:22.085Z,102047.00
2023-02-15T13:26:50.441Z,102064.84
2023-02-15T13:29:23.544Z,102070.03
2023-02-15T13:31:54.537Z,102024.19
2023-02-15T13:34:28.301Z,102017.16
2023-02-15T13:37:04.144Z,102065.94
2023-02-15T13:39:41.321Z,101999.09
2023-02-15T13:42:22.639Z,102058.28
2023-02-15T13:45:08.527Z,102045.94
2023-02-15T13:47:46.133Z,102051.66
2023-02-15T13:50:30.194Z,102056.41
2023-02-15T13:53:13.056Z,102049.66
2023-02-15T13:55:46.354Z,102046.06
2023-02-15T13:58:58.687Z,102015.72
2023-02-15T14:01:36.534Z,102033.88
2023-02-15T14:04:18.892Z,102048.22
2023-02-15T14:07:05.920Z,102040.56
2023-02-15T14:09:46.887Z,102043.94
2023-02-15T14:12:36.911Z,102046.78
2023-02-15T14:15:20.271Z,102039.53
2023-02-15T14:17:58.004Z,102004.56
2023-02-15T14:20:34.766Z,102032.44
2023-02-15T14:23:12.794Z,102034.91
2023-02-15T14:25:49.659Z,102024.84
2023-02-15T14:28:23.020Z,101986.94
2023-02-15T14:30:53.838Z,102028.59
2023-02-15T14:33:35.268Z,101981.75
2023-02-15T14:36:07.374Z,102031.31
2023-02-15T14:38:54.994Z,102028.59
2023-02-15T14:41:31.153Z,102018.00
2023-02-15T14:44:09.657Z,102019.00
2023-02-15T14:46:45.146Z,102017.44
2023-02-15T14:49:16.325Z,102008.66
2023-02-15T14:52:00.021Z,101974.47
2023-02-15T14:55:11.168Z,101998.66
2023-02-15T14:57:40.457Z,101986.06
2023-02-15T15:00:40.131Z,102001.84
2023-02-15T15:03:22.844Z,101992.81
2023-02-15T15:05:53.788Z,101997.09
2023-02-15T15:08:34.622Z,101986.94
2023-02-15T15:11:43.518Z,101967.34
2023-02-15T15:14:41.344Z,101995.72
2023-02-15T15:17:14.196Z,101991.31
2023-02-15T15:20:14.646Z,101991.44
2023-02-15T15:22:44.199Z,101987.97
2023-02-15T15:25:14.738Z,101989.53
2023-02-15T15:27:53.758Z,101940.69
2023-02-15T15:31:01.746Z,101988.63
2023-02-15T15:34:11.323Z,101986.69
2023-02-15T15:37:26.582Z,101983.97
2023-02-15T15:40:33.326Z,101985.59
2023-02-15T15:43:49.625Z,101974.31
2023-02-15T15:46:45.226Z,101967.22
2023-02-15T15:49:17.259Z,101976.78
2023-02-15T15:51:47.328Z,101963.25
2023-02-15T15:54:18.774Z,101969.94
2023-02-15T15:56:51.091Z,101966.56
2023-02-15T15:59:24.305Z,101957.88
2023-02-15T16:01:52.531Z,101955.41
2023-02-15T16:04:29.994Z,101928.34
2023-02-15T16:06:58.950Z,101945.25
2023-02-15T16:09:29.198Z,101945.25
2023-02-15T16:12:01.517Z,101942.53
2023-02-15T16:14:32.919Z,101966.63
2023-02-15T16:17:03.923Z,101942.97
2023-02-15T16:19:35.846Z,101935.88
2023-02-15T16:22:05.648Z,101931.78
2023-02-15T16:24:52.459Z,101931.13
2023-02-15T16:27:32.457Z,101923.91
2023-02-15T16:30:20.286Z,101927.38
2023-02-15T16:32:48.508Z,101928.16
2023-02-15T16:35:17.997Z,101850.81
2023-02-15T16:37:46.847Z,101926.25
2023-02-15T16:40:42.508Z,101920.81
2023-02-15T16:43:18.748Z,101897.84
2023-02-15T16:45:48.874Z,101877.75
2023-02-15T16:48:23.480Z,101909.94
2023-02-15T16:50:55.358Z,101896.28
2023-02-15T16:53:26.052Z,101906.09
2023-02-15T16:55:57.425Z,101905.97
2023-02-15T16:58:31.135Z,101906.63
2023-02-15T17:01:04.145Z,101906.50
2023-02-15T17:03:32.301Z,101911.69
2023-02-15T17:06:01.906Z,101891.28
2023-02-15T17:08:33.024Z,101839.84
2023-02-15T17:11:17.372Z,101886.91
2023-02-15T17:14:15.568Z,101892.31
2023-02-15T17:16:50.152Z,101889.72
2023-02-15T17:19:21.892Z,101887.78
2023-02-15T17:21:53.494Z,101879.91
2023-02-15T17:24:27.440Z,101885.88
2023-02-15T17:27:00.800Z,101872.16
2023-02-15T17:29:36.745Z,101874.75
2023-02-15T17:32:07.331Z,101881.34
2023-02-15T17:34:52.496Z,101877.75
2023-02-15T17:37:32.055Z,101870.28
2023-02-15T17:40:01.537Z,101877.75
2023-02-15T17:42:29.938Z,101875.03
2023-02-15T17:44:57.729Z,101878.41
2023-02-15T17:47:30.245Z,101871.44
2023-02-15T17:49:58.276Z,101869.50
2023-02-15T17:52:31.710Z,101870.16
2023-02-15T17:55:17.356Z,101672.28
2023-02-15T17:57:45.872Z,101864.50
2023-02-15T18:00:33.974Z,101847.00
2023-02-15T18:03:20.824Z,101868.91
2023-02-15T18:06:06.241Z,101851.34
2023-02-15T18:08:51.345Z,101835.53
2023-02-15T18:11:38.052Z,101848.03
2023-02-15T18:14:07.929Z,101829.75
2023-02-15T18:16:38.832Z,101860.19
2023-02-15T18:19:14.748Z,101854.22
2023-02-15T18:21:42.726Z,101843.63
2023-02-15T18:24:17.058Z,101839.13
2023-02-15T18:26:45.218Z,101830.53
2023-02-15T18:29:13.163Z,101841.88
2023-02-15T18:31:42.385Z,101840.09
2023-02-15T18:34:23.117Z,101821.63
2023-02-15T18:36:51.567Z,101830.16
2023-02-15T18:39:27.780Z,101814.94
2023-02-15T18:41:55.891Z,101828.59
2023-02-15T18:44:23.907Z,101721.25
2023-02-15T18:46:51.760Z,101818.38
2023-02-15T18:49:21.104Z,101803.69
2023-02-15T18:51:49.319Z,101801.47
2023-02-15T18:54:20.413Z,101741.19
2023-02-15T18:56:54.914Z,101809.59
2023-02-15T18:59:23.520Z,101807.78
2023-02-15T19:01:51.740Z,101801.06
2023-02-15T19:04:21.755Z,101788.69
2023-02-15T19:06:50.905Z,101798.06
2023-02-15T19:09:22.497Z,101803.22
2023-02-15T19:11:52.870Z,101794.09
2023-02-15T19:14:26.530Z,101801.84
2023-02-15T19:16:54.749Z,101791.50
2023-02-15T19:19:24.372Z,101795.91
2023-02-15T19:21:53.106Z,101786.47
2023-02-15T19:24:25.299Z,101780.25
2023-02-15T19:26:53.910Z,101745.41
2023-02-15T19:29:26.791Z,101777.56
2023-02-15T19:31:55.094Z,101726.78
2023-02-15T19:34:25.014Z,101761.16
2023-02-15T19:36:54.711Z,101747.63
2023-02-15T19:39:26.668Z,101757.41
2023-02-15T19:41:54.822Z,101723.66
2023-02-15T19:44:23.321Z,101747.44
2023-02-15T19:46:52.366Z,101744.97
2023-02-15T19:49:20.296Z,101751.06
2023-02-15T19:51:50.034Z,101731.69
2023-02-15T19:54:30.906Z,101716.97
2023-02-15T19:56:59.260Z,101717.22
2023-02-15T19:59:29.831Z,101731.19
2023-02-15T20:01:58.235Z,101731.19
2023-02-15T20:04:26.561Z,101718.28
2023-02-15T20:06:58.086Z,101722.66
2023-02-15T20:09:29.927Z,101631.22
2023-02-15T20:11:57.890Z,101716.03
2023-02-15T20:14:25.706Z,101695.19
2023-02-15T20:16:53.835Z,101567.19
2023-02-15T20:19:21.755Z,101710.53
2023-02-15T20:21:55.093Z,101709.63
2023-02-15T20:24:28.263Z,101695.31
2023-02-15T20:26:56.173Z,101708.47
2023-02-15T20:29:24.062Z,101699.03
2023-02-15T20:31:55.146Z,101692.97
2023-02-15T20:34:23.338Z,101697.47
2023-02-15T20:36:52.874Z,101701.97
2023-02-15T20:39:21.082Z,101668.16
2023-02-15T20:41:50.401Z,101702.75
2023-02-15T20:44:21.648Z,101694.09
2023-02-15T20:46:51.056Z,101684.31
2023-02-15T20:49:19.198Z,101698.50
2023-02-15T20:51:48.103Z,101696.69
2023-02-15T20:54:18.824Z,101693.88
2023-02-15T20:56:47.628Z,101693.22
2023-02-15T20:59:29.097Z,101691.16
2023-02-15T21:02:00.385Z,101680.78
2023-02-15T21:04:32.114Z,101690.94
2023-02-15T21:07:00.296Z,101691.84
2023-02-15T21:09:28.783Z,101688.53
2023-02-15T21:11:59.180Z,101693.34
2023-02-15T21:14:29.832Z,101660.38
2023-02-15T21:16:59.566Z,101593.22
2023-02-15T21:19:28.760Z,101687.03
2023-02-15T21:21:57.552Z,101691.31
2023-02-15T21:24:27.854Z,101685.25
2023-02-15T21:26:57.276Z,101679.16
2023-02-15T21:29:29.437Z,101686.03
2023-02-15T21:31:58.438Z,101663.75
2023-02-15T21:34:26.443Z,101677.78
2023-02-15T21:36:54.939Z,101677.25
2023-02-15T21:39:25.500Z,101683.97
2023-02-15T21:42:13.402Z,101625.53
2023-02-15T21:45:00.712Z,101670.22
2023-02-15T21:47:48.164Z,101667.66
2023-02-15T21:50:36.639Z,101309.06
2023-02-15T21:53:05.887Z,101650.66
2023-02-15T21:55:34.458Z,101643.31
2023-02-15T21:58:02.656Z,101607.75
2023-02-15T22:00:33.987Z,101653.81
2023-02-15T22:03:02.780Z,101647.09
2023-02-15T22:05:32.393Z,101620.63
2023-02-15T22:08:00.998Z,101642.72
2023-02-15T22:10:31.532Z,101646.97
2023-02-15T22:13:01.523Z,101647.22
2023-02-15T22:15:36.447Z,101630.56
2023-02-15T22:18:05.442Z,101618.44
2023-02-15T22:20:33.287Z,101625.66
2023-02-15T22:23:01.236Z,101619.34
2023-02-15T22:25:29.290Z,101634.09
2023-02-15T22:27:57.310Z,101634.22
2023-02-15T22:30:27.634Z,101631.53
2023-02-15T22:32:58.395Z,101632.53
2023-02-15T22:35:28.429Z,101618.00
2023-02-15T22:37:56.723Z,101624.78
2023-02-15T22:40:30.322Z,101627.50
2023-02-15T22:43:00.741Z,101626.81
2023-02-15T22:45:29.399Z,101615.13
2023-02-15T22:48:01.430Z,101615.59
2023-02-15T22:50:31.335Z,101613.00
2023-02-15T22:53:01.239Z,101609.63
2023-02-15T22:55:31.919Z,101597.16
2023-02-15T22:58:00.162Z,101597.50
2023-02-15T23:00:30.677Z,101108.72
2023-02-15T23:03:00.316Z,101603.69
2023-02-15T23:05:30.848Z,101584.88
2023-02-15T23:07:58.982Z,101596.72
2023-02-15T23:10:30.286Z,101597.63
2023-02-15T23:13:17.876Z,101595.03
2023-02-15T23:15:49.086Z,101587.94
2023-02-15T23:18:22.684Z,101591.31
2023-02-15T23:20:53.588Z,101587.72
2023-02-15T23:23:26.909Z,101573.00
2023-02-15T23:25:55.045Z,101586.16
2023-02-15T23:28:27.577Z,101575.56
2023-02-15T23:30:56.254Z,101569.75
2023-02-15T23:33:28.666Z,101570.75
2023-02-15T23:35:56.714Z,101569.97
2023-02-15T23:38:28.297Z,101559.75
2023-02-15T23:41:16.986Z,101558.97
2023-02-15T23:43:48.933Z,101557.16
2023-02-15T23:46:26.060Z,101530.59
2023-02-15T23:48:55.706Z,101552.56
2023-02-15T23:51:29.514Z,101560.31
2023-02-15T23:53:57.724Z,101550.88
2023-02-15T23:56:25.663Z,101503.28
2023-02-15T23:58:53.634Z,101548.63
